sensor_id;sensor_type;location;lat;lon;timestamp;temperature;humidity
10344;DHT22;5217;43.960;10.954;2022-12-17T00:02:26;15.80;99.90
10344;DHT22;5217;43.960;10.954;2022-12-17T00:05:12;15.90;99.90
10344;DHT22;5217;43.960;10.954;2022-12-17T00:07:59;15.80;99.90
10344;DHT22;5217;43.960;10.954;2022-12-17T00:10:50;15.80;99.90
10344;DHT22;5217;43.960;10.954;2022-12-17T00:13:35;15.80;99.90
10344;DHT22;5217;43.960;10.954;2022-12-17T00:16:22;15.70;99.90
10344;DHT22;5217;43.960;10.954;2022-12-17T00:19:09;15.70;99.90
10344;DHT22;5217;43.960;10.954;2022-12-17T00:21:55;15.70;99.90
10344;DHT22;5217;43.960;10.954;2022-12-17T00:24:40;15.70;99.90
10344;DHT22;5217;43.960;10.954;2022-12-17T00:27:26;15.70;99.90
10344;DHT22;5217;43.960;10.954;2022-12-17T00:30:11;15.70;99.90
10344;DHT22;5217;43.960;10.954;2022-12-17T00:32:56;15.60;99.90
10344;DHT22;5217;43.960;10.954;2022-12-17T00:35:43;15.70;99.90
10344;DHT22;5217;43.960;10.954;2022-12-17T00:38:34;15.60;99.90
10344;DHT22;5217;43.960;10.954;2022-12-17T00:41:22;15.60;99.90
10344;DHT22;5217;43.960;10.954;2022-12-17T00:44:08;15.60;99.90
10344;DHT22;5217;43.960;10.954;2022-12-17T00:46:54;15.60;99.90
10344;DHT22;5217;43.960;10.954;2022-12-17T00:49:42;15.60;99.90
10344;DHT22;5217;43.960;10.954;2022-12-17T00:52:29;15.50;99.90
10344;DHT22;5217;43.960;10.954;2022-12-17T00:55:15;15.60;99.90
10344;DHT22;5217;43.960;10.954;2022-12-17T00:58:01;15.50;99.90
10344;DHT22;5217;43.960;10.954;2022-12-17T01:00:46;15.60;99.90
10344;DHT22;5217;43.960;10.954;2022-12-17T01:03:32;15.50;99.90
10344;DHT22;5217;43.960;10.954;2022-12-17T01:06:18;15.50;99.90
10344;DHT22;5217;43.960;10.954;2022-12-17T01:09:05;15.60;99.90
10344;DHT22;5217;43.960;10.954;2022-12-17T01:11:51;15.50;99.90
10344;DHT22;5217;43.960;10.954;2022-12-17T01:14:36;15.50;99.90
10344;DHT22;5217;43.960;10.954;2022-12-17T01:17:22;15.50;99.90
10344;DHT22;5217;43.960;10.954;2022-12-17T01:20:08;15.50;99.90
10344;DHT22;5217;43.960;10.954;2022-12-17T01:22:54;15.50;99.90
10344;DHT22;5217;43.960;10.954;2022-12-17T01:25:41;15.50;99.90
10344;DHT22;5217;43.960;10.954;2022-12-17T01:28:24;15.50;99.90
10344;DHT22;5217;43.960;10.954;2022-12-17T01:31:11;15.50;99.90
10344;DHT22;5217;43.960;10.954;2022-12-17T01:34:01;15.50;99.90
10344;DHT22;5217;43.960;10.954;2022-12-17T01:36:47;15.50;99.90
10344;DHT22;5217;43.960;10.954;2022-12-17T01:39:33;15.50;99.90
10344;DHT22;5217;43.960;10.954;2022-12-17T01:42:20;15.50;99.90
10344;DHT22;5217;43.960;10.954;2022-12-17T01:45:12;15.50;99.90
10344;DHT22;5217;43.960;10.954;2022-12-17T01:48:01;15.50;99.90
10344;DHT22;5217;43.960;10.954;2022-12-17T01:50:51;15.50;99.90
10344;DHT22;5217;43.960;10.954;2022-12-17T01:53:41;15.40;99.90
10344;DHT22;5217;43.960;10.954;2022-12-17T01:56:28;15.50;99.90
10344;DHT22;5217;43.960;10.954;2022-12-17T01:59:18;15.40;99.90
10344;DHT22;5217;43.960;10.954;2022-12-17T02:02:08;15.50;99.90
10344;DHT22;5217;43.960;10.954;2022-12-17T02:04:53;15.40;99.90
10344;DHT22;5217;43.960;10.954;2022-12-17T02:07:47;15.40;99.90
10344;DHT22;5217;43.960;10.954;2022-12-17T02:10:40;15.40;99.90
10344;DHT22;5217;43.960;10.954;2022-12-17T02:13:31;15.50;99.90
10344;DHT22;5217;43.960;10.954;2022-12-17T02:16:23;15.40;99.90
10344;DHT22;5217;43.960;10.954;2022-12-17T02:19:18;15.50;99.90
10344;DHT22;5217;43.960;10.954;2022-12-17T02:22:13;15.40;99.90
10344;DHT22;5217;43.960;10.954;2022-12-17T02:25:05;15.40;99.90
10344;DHT22;5217;43.960;10.954;2022-12-17T02:27:57;15.40;99.90
10344;DHT22;5217;43.960;10.954;2022-12-17T02:30:43;15.40;99.90
10344;DHT22;5217;43.960;10.954;2022-12-17T02:33:30;15.40;99.90
10344;DHT22;5217;43.960;10.954;2022-12-17T02:36:16;15.50;99.90
10344;DHT22;5217;43.960;10.954;2022-12-17T02:39:02;15.50;99.90
10344;DHT22;5217;43.960;10.954;2022-12-17T02:41:50;15.40;99.90
10344;DHT22;5217;43.960;10.954;2022-12-17T02:44:39;15.40;99.90
10344;DHT22;5217;43.960;10.954;2022-12-17T02:47:27;15.40;99.90
10344;DHT22;5217;43.960;10.954;2022-12-17T02:50:14;15.40;99.90
10344;DHT22;5217;43.960;10.954;2022-12-17T02:53:01;15.40;99.90
10344;DHT22;5217;43.960;10.954;2022-12-17T02:55:47;15.40;99.90
10344;DHT22;5217;43.960;10.954;2022-12-17T02:58:33;15.40;99.90
10344;DHT22;5217;43.960;10.954;2022-12-17T03:01:21;15.40;99.90
10344;DHT22;5217;43.960;10.954;2022-12-17T03:04:07;15.40;99.90
10344;DHT22;5217;43.960;10.954;2022-12-17T03:06:53;15.40;99.90
10344;DHT22;5217;43.960;10.954;2022-12-17T03:09:40;15.40;99.90
10344;DHT22;5217;43.960;10.954;2022-12-17T03:12:26;15.40;99.90
10344;DHT22;5217;43.960;10.954;2022-12-17T03:15:12;15.40;99.90
10344;DHT22;5217;43.960;10.954;2022-12-17T03:17:59;15.40;99.90
10344;DHT22;5217;43.960;10.954;2022-12-17T03:20:45;15.40;99.90
10344;DHT22;5217;43.960;10.954;2022-12-17T03:23:32;15.40;99.90
10344;DHT22;5217;43.960;10.954;2022-12-17T03:26:18;15.40;99.90
10344;DHT22;5217;43.960;10.954;2022-12-17T03:29:04;15.40;99.90
10344;DHT22;5217;43.960;10.954;2022-12-17T03:31:51;15.40;99.90
10344;DHT22;5217;43.960;10.954;2022-12-17T03:34:38;15.40;99.90
10344;DHT22;5217;43.960;10.954;2022-12-17T03:37:24;15.40;99.90
10344;DHT22;5217;43.960;10.954;2022-12-17T03:40:10;15.50;99.90
10344;DHT22;5217;43.960;10.954;2022-12-17T03:42:56;15.50;99.90
10344;DHT22;5217;43.960;10.954;2022-12-17T03:45:42;15.40;99.90
10344;DHT22;5217;43.960;10.954;2022-12-17T03:48:27;15.40;99.90
10344;DHT22;5217;43.960;10.954;2022-12-17T03:51:14;15.40;99.90
10344;DHT22;5217;43.960;10.954;2022-12-17T03:54:00;15.40;99.90
10344;DHT22;5217;43.960;10.954;2022-12-17T03:56:51;15.40;99.90
10344;DHT22;5217;43.960;10.954;2022-12-17T03:59:42;15.50;99.90
10344;DHT22;5217;43.960;10.954;2022-12-17T04:02:27;15.40;99.90
10344;DHT22;5217;43.960;10.954;2022-12-17T04:05:13;15.40;99.90
10344;DHT22;5217;43.960;10.954;2022-12-17T04:08:01;15.40;99.90
10344;DHT22;5217;43.960;10.954;2022-12-17T04:10:46;15.40;99.90
10344;DHT22;5217;43.960;10.954;2022-12-17T04:13:32;15.50;99.90
10344;DHT22;5217;43.960;10.954;2022-12-17T04:16:18;15.40;99.90
10344;DHT22;5217;43.960;10.954;2022-12-17T04:19:04;15.40;99.90
10344;DHT22;5217;43.960;10.954;2022-12-17T04:21:49;15.40;99.90
10344;DHT22;5217;43.960;10.954;2022-12-17T04:24:37;15.50;99.90
10344;DHT22;5217;43.960;10.954;2022-12-17T04:27:28;15.40;99.90
10344;DHT22;5217;43.960;10.954;2022-12-17T04:30:14;15.40;99.90
10344;DHT22;5217;43.960;10.954;2022-12-17T04:32:59;15.40;99.90
10344;DHT22;5217;43.960;10.954;2022-12-17T04:35:44;15.40;99.90
10344;DHT22;5217;43.960;10.954;2022-12-17T04:38:30;15.40;99.90
10344;DHT22;5217;43.960;10.954;2022-12-17T04:41:17;15.40;99.90
10344;DHT22;5217;43.960;10.954;2022-12-17T04:44:03;15.40;99.90
10344;DHT22;5217;43.960;10.954;2022-12-17T04:46:48;15.40;99.90
10344;DHT22;5217;43.960;10.954;2022-12-17T04:49:36;15.40;99.90
10344;DHT22;5217;43.960;10.954;2022-12-17T04:52:21;15.40;99.90
10344;DHT22;5217;43.960;10.954;2022-12-17T04:55:07;15.40;99.90
10344;DHT22;5217;43.960;10.954;2022-12-17T04:58:01;15.40;99.90
10344;DHT22;5217;43.960;10.954;2022-12-17T05:00:46;15.30;99.90
10344;DHT22;5217;43.960;10.954;2022-12-17T05:03:34;15.40;99.90
10344;DHT22;5217;43.960;10.954;2022-12-17T05:06:20;15.40;99.90
10344;DHT22;5217;43.960;10.954;2022-12-17T05:09:05;15.30;99.90
10344;DHT22;5217;43.960;10.954;2022-12-17T05:11:51;15.40;99.90
10344;DHT22;5217;43.960;10.954;2022-12-17T05:14:39;15.30;99.90
10344;DHT22;5217;43.960;10.954;2022-12-17T05:17:24;15.30;99.90
10344;DHT22;5217;43.960;10.954;2022-12-17T05:20:10;15.30;99.90
10344;DHT22;5217;43.960;10.954;2022-12-17T05:23:03;15.30;99.90
10344;DHT22;5217;43.960;10.954;2022-12-17T05:25:54;15.30;99.90
10344;DHT22;5217;43.960;10.954;2022-12-17T05:28:40;15.30;99.90
10344;DHT22;5217;43.960;10.954;2022-12-17T05:31:27;15.30;99.90
10344;DHT22;5217;43.960;10.954;2022-12-17T05:34:18;15.30;99.90
10344;DHT22;5217;43.960;10.954;2022-12-17T05:37:04;15.30;99.90
10344;DHT22;5217;43.960;10.954;2022-12-17T05:39:49;15.30;99.90
10344;DHT22;5217;43.960;10.954;2022-12-17T05:42:38;15.20;99.90
10344;DHT22;5217;43.960;10.954;2022-12-17T05:45:24;15.30;99.90
10344;DHT22;5217;43.960;10.954;2022-12-17T05:48:11;15.30;99.90
10344;DHT22;5217;43.960;10.954;2022-12-17T05:51:11;15.30;99.90
10344;DHT22;5217;43.960;10.954;2022-12-17T05:54:04;15.30;99.90
10344;DHT22;5217;43.960;10.954;2022-12-17T05:56:50;15.30;99.90
10344;DHT22;5217;43.960;10.954;2022-12-17T05:59:36;15.30;99.90
10344;DHT22;5217;43.960;10.954;2022-12-17T06:02:22;15.30;99.90
10344;DHT22;5217;43.960;10.954;2022-12-17T06:05:10;15.30;99.90
10344;DHT22;5217;43.960;10.954;2022-12-17T06:08:01;15.20;99.90
10344;DHT22;5217;43.960;10.954;2022-12-17T06:10:47;15.30;99.90
10344;DHT22;5217;43.960;10.954;2022-12-17T06:13:33;15.30;99.90
10344;DHT22;5217;43.960;10.954;2022-12-17T06:16:19;15.30;99.90
10344;DHT22;5217;43.960;10.954;2022-12-17T06:19:04;15.30;99.90
10344;DHT22;5217;43.960;10.954;2022-12-17T06:21:51;15.30;99.90
10344;DHT22;5217;43.960;10.954;2022-12-17T06:24:37;15.30;99.90
10344;DHT22;5217;43.960;10.954;2022-12-17T06:27:22;15.30;99.90
10344;DHT22;5217;43.960;10.954;2022-12-17T06:30:09;15.30;99.90
10344;DHT22;5217;43.960;10.954;2022-12-17T06:33:02;15.30;99.90
10344;DHT22;5217;43.960;10.954;2022-12-17T06:35:50;15.30;99.90
10344;DHT22;5217;43.960;10.954;2022-12-17T06:38:38;15.30;99.90
10344;DHT22;5217;43.960;10.954;2022-12-17T06:41:24;15.30;99.90
10344;DHT22;5217;43.960;10.954;2022-12-17T06:44:09;15.30;99.90
10344;DHT22;5217;43.960;10.954;2022-12-17T06:46:55;15.30;99.90
10344;DHT22;5217;43.960;10.954;2022-12-17T06:49:43;15.30;99.90
10344;DHT22;5217;43.960;10.954;2022-12-17T06:52:29;15.30;99.90
10344;DHT22;5217;43.960;10.954;2022-12-17T06:55:16;15.30;99.90
10344;DHT22;5217;43.960;10.954;2022-12-17T06:58:02;15.30;99.90
10344;DHT22;5217;43.960;10.954;2022-12-17T07:00:50;15.30;99.90
10344;DHT22;5217;43.960;10.954;2022-12-17T07:03:36;15.30;99.90
10344;DHT22;5217;43.960;10.954;2022-12-17T07:06:21;15.30;99.90
10344;DHT22;5217;43.960;10.954;2022-12-17T07:09:07;15.20;99.90
10344;DHT22;5217;43.960;10.954;2022-12-17T07:11:54;15.30;99.90
10344;DHT22;5217;43.960;10.954;2022-12-17T07:14:40;15.30;99.90
10344;DHT22;5217;43.960;10.954;2022-12-17T07:17:25;15.20;99.90
10344;DHT22;5217;43.960;10.954;2022-12-17T07:20:11;15.20;99.90
10344;DHT22;5217;43.960;10.954;2022-12-17T07:22:57;15.10;99.90
10344;DHT22;5217;43.960;10.954;2022-12-17T07:25:43;15.20;99.90
10344;DHT22;5217;43.960;10.954;2022-12-17T07:28:30;15.10;99.90
10344;DHT22;5217;43.960;10.954;2022-12-17T07:31:16;15.10;99.90
10344;DHT22;5217;43.960;10.954;2022-12-17T07:34:03;15.10;99.90
10344;DHT22;5217;43.960;10.954;2022-12-17T07:36:49;15.00;99.90
10344;DHT22;5217;43.960;10.954;2022-12-17T07:39:35;15.10;99.90
10344;DHT22;5217;43.960;10.954;2022-12-17T07:42:32;15.10;99.90
10344;DHT22;5217;43.960;10.954;2022-12-17T07:45:19;15.00;99.90
10344;DHT22;5217;43.960;10.954;2022-12-17T07:48:05;15.00;99.90
10344;DHT22;5217;43.960;10.954;2022-12-17T07:50:51;15.10;99.90
10344;DHT22;5217;43.960;10.954;2022-12-17T07:53:37;15.00;99.90
10344;DHT22;5217;43.960;10.954;2022-12-17T07:56:23;15.00;99.90
10344;DHT22;5217;43.960;10.954;2022-12-17T07:59:09;15.00;99.90
10344;DHT22;5217;43.960;10.954;2022-12-17T08:01:56;15.10;99.90
10344;DHT22;5217;43.960;10.954;2022-12-17T08:04:42;15.10;99.90
10344;DHT22;5217;43.960;10.954;2022-12-17T08:07:28;15.10;99.90
10344;DHT22;5217;43.960;10.954;2022-12-17T08:10:14;15.10;99.90
10344;DHT22;5217;43.960;10.954;2022-12-17T08:12:58;15.10;99.90
10344;DHT22;5217;43.960;10.954;2022-12-17T08:15:44;15.10;99.90
10344;DHT22;5217;43.960;10.954;2022-12-17T08:18:31;15.00;99.90
10344;DHT22;5217;43.960;10.954;2022-12-17T08:21:17;15.10;99.90
10344;DHT22;5217;43.960;10.954;2022-12-17T08:24:04;15.00;99.90
10344;DHT22;5217;43.960;10.954;2022-12-17T08:26:49;15.10;99.90
10344;DHT22;5217;43.960;10.954;2022-12-17T08:29:35;15.10;99.90
10344;DHT22;5217;43.960;10.954;2022-12-17T08:32:23;15.10;99.90
10344;DHT22;5217;43.960;10.954;2022-12-17T08:35:10;15.10;99.90
10344;DHT22;5217;43.960;10.954;2022-12-17T08:38:00;15.10;99.90
10344;DHT22;5217;43.960;10.954;2022-12-17T08:40:46;15.10;99.90
10344;DHT22;5217;43.960;10.954;2022-12-17T08:43:31;15.20;99.90
10344;DHT22;5217;43.960;10.954;2022-12-17T08:46:23;15.10;99.90
10344;DHT22;5217;43.960;10.954;2022-12-17T08:49:09;15.20;99.90
10344;DHT22;5217;43.960;10.954;2022-12-17T08:51:56;15.20;99.90
10344;DHT22;5217;43.960;10.954;2022-12-17T08:54:42;15.20;99.90
10344;DHT22;5217;43.960;10.954;2022-12-17T08:57:31;15.20;99.90
10344;DHT22;5217;43.960;10.954;2022-12-17T09:00:20;15.20;99.90
10344;DHT22;5217;43.960;10.954;2022-12-17T09:03:07;15.20;99.90
10344;DHT22;5217;43.960;10.954;2022-12-17T09:05:54;15.30;99.90
10344;DHT22;5217;43.960;10.954;2022-12-17T09:08:45;15.30;99.90
10344;DHT22;5217;43.960;10.954;2022-12-17T09:11:31;15.30;99.90
10344;DHT22;5217;43.960;10.954;2022-12-17T09:14:17;15.30;99.90
10344;DHT22;5217;43.960;10.954;2022-12-17T09:17:02;15.40;99.90
10344;DHT22;5217;43.960;10.954;2022-12-17T09:19:48;15.50;99.90
10344;DHT22;5217;43.960;10.954;2022-12-17T09:22:34;15.40;99.90
10344;DHT22;5217;43.960;10.954;2022-12-17T09:25:21;15.40;99.90
10344;DHT22;5217;43.960;10.954;2022-12-17T09:28:07;15.50;99.90
10344;DHT22;5217;43.960;10.954;2022-12-17T09:30:57;15.50;99.90
10344;DHT22;5217;43.960;10.954;2022-12-17T09:33:43;15.50;99.90
10344;DHT22;5217;43.960;10.954;2022-12-17T09:36:29;15.60;99.90
10344;DHT22;5217;43.960;10.954;2022-12-17T09:39:26;15.60;99.90
10344;DHT22;5217;43.960;10.954;2022-12-17T09:42:18;15.60;99.90
10344;DHT22;5217;43.960;10.954;2022-12-17T09:45:14;15.60;99.90
10344;DHT22;5217;43.960;10.954;2022-12-17T09:48:05;15.60;99.90
10344;DHT22;5217;43.960;10.954;2022-12-17T09:50:58;15.70;99.90
10344;DHT22;5217;43.960;10.954;2022-12-17T09:53:46;15.70;99.90
10344;DHT22;5217;43.960;10.954;2022-12-17T09:56:35;15.70;99.90
10344;DHT22;5217;43.960;10.954;2022-12-17T09:59:27;15.70;99.90
10344;DHT22;5217;43.960;10.954;2022-12-17T10:02:15;15.70;99.90
10344;DHT22;5217;43.960;10.954;2022-12-17T10:05:05;15.70;99.90
10344;DHT22;5217;43.960;10.954;2022-12-17T10:07:53;15.70;99.90
10344;DHT22;5217;43.960;10.954;2022-12-17T10:10:43;15.80;99.90
10344;DHT22;5217;43.960;10.954;2022-12-17T10:13:29;15.70;99.90
10344;DHT22;5217;43.960;10.954;2022-12-17T10:16:26;15.80;99.90
10344;DHT22;5217;43.960;10.954;2022-12-17T10:19:14;15.80;99.90
10344;DHT22;5217;43.960;10.954;2022-12-17T10:22:08;15.90;99.90
10344;DHT22;5217;43.960;10.954;2022-12-17T10:24:55;15.90;99.90
10344;DHT22;5217;43.960;10.954;2022-12-17T10:27:41;16.00;99.90
10344;DHT22;5217;43.960;10.954;2022-12-17T10:30:27;16.00;99.90
10344;DHT22;5217;43.960;10.954;2022-12-17T10:33:23;16.00;99.90
10344;DHT22;5217;43.960;10.954;2022-12-17T10:36:20;16.00;99.90
10344;DHT22;5217;43.960;10.954;2022-12-17T10:39:14;16.10;99.90
10344;DHT22;5217;43.960;10.954;2022-12-17T10:42:00;16.10;99.90
10344;DHT22;5217;43.960;10.954;2022-12-17T10:44:46;16.10;99.90
10344;DHT22;5217;43.960;10.954;2022-12-17T10:47:32;16.30;99.90
10344;DHT22;5217;43.960;10.954;2022-12-17T10:50:21;16.30;99.90
10344;DHT22;5217;43.960;10.954;2022-12-17T10:53:16;16.30;99.90
10344;DHT22;5217;43.960;10.954;2022-12-17T10:56:04;16.40;99.90
10344;DHT22;5217;43.960;10.954;2022-12-17T10:58:52;16.50;99.90
10344;DHT22;5217;43.960;10.954;2022-12-17T11:01:39;16.60;99.90
10344;DHT22;5217;43.960;10.954;2022-12-17T11:04:28;16.70;99.90
10344;DHT22;5217;43.960;10.954;2022-12-17T11:07:20;16.80;99.90
10344;DHT22;5217;43.960;10.954;2022-12-17T11:10:19;16.90;99.90
10344;DHT22;5217;43.960;10.954;2022-12-17T11:13:09;16.90;99.90
10344;DHT22;5217;43.960;10.954;2022-12-17T11:15:57;16.90;99.90
10344;DHT22;5217;43.960;10.954;2022-12-17T11:18:49;17.00;99.90
10344;DHT22;5217;43.960;10.954;2022-12-17T11:21:40;17.00;99.90
10344;DHT22;5217;43.960;10.954;2022-12-17T11:24:32;17.10;99.90
10344;DHT22;5217;43.960;10.954;2022-12-17T11:27:24;17.10;99.90
10344;DHT22;5217;43.960;10.954;2022-12-17T11:30:13;17.10;99.90
10344;DHT22;5217;43.960;10.954;2022-12-17T11:33:06;17.20;99.90
10344;DHT22;5217;43.960;10.954;2022-12-17T11:35:59;17.20;99.90
10344;DHT22;5217;43.960;10.954;2022-12-17T11:38:58;17.20;99.90
10344;DHT22;5217;43.960;10.954;2022-12-17T11:41:52;17.20;99.90
10344;DHT22;5217;43.960;10.954;2022-12-17T11:44:48;17.30;99.90
10344;DHT22;5217;43.960;10.954;2022-12-17T11:47:42;17.30;99.90
10344;DHT22;5217;43.960;10.954;2022-12-17T11:53:17;17.40;99.90
10344;DHT22;5217;43.960;10.954;2022-12-17T11:56:16;17.40;99.90
10344;DHT22;5217;43.960;10.954;2022-12-17T11:59:22;17.40;99.90
10344;DHT22;5217;43.960;10.954;2022-12-17T12:02:35;17.50;99.90
10344;DHT22;5217;43.960;10.954;2022-12-17T12:05:27;17.60;99.90
10344;DHT22;5217;43.960;10.954;2022-12-17T12:08:25;17.60;99.90
10344;DHT22;5217;43.960;10.954;2022-12-17T12:11:20;17.70;99.90
10344;DHT22;5217;43.960;10.954;2022-12-17T12:16:50;17.70;99.90
10344;DHT22;5217;43.960;10.954;2022-12-17T12:19:43;17.80;99.90
10344;DHT22;5217;43.960;10.954;2022-12-17T12:22:37;17.80;99.90
10344;DHT22;5217;43.960;10.954;2022-12-17T12:25:45;17.80;99.90
10344;DHT22;5217;43.960;10.954;2022-12-17T12:28:27;17.90;99.90
10344;DHT22;5217;43.960;10.954;2022-12-17T12:31:23;18.00;99.90
10344;DHT22;5217;43.960;10.954;2022-12-17T12:34:16;17.90;99.90
10344;DHT22;5217;43.960;10.954;2022-12-17T12:37:04;18.00;99.90
10344;DHT22;5217;43.960;10.954;2022-12-17T12:39:54;18.00;99.90
10344;DHT22;5217;43.960;10.954;2022-12-17T12:42:46;18.00;99.90
10344;DHT22;5217;43.960;10.954;2022-12-17T12:45:42;18.00;99.90
10344;DHT22;5217;43.960;10.954;2022-12-17T12:48:37;18.00;99.90
10344;DHT22;5217;43.960;10.954;2022-12-17T12:51:27;18.00;99.90
10344;DHT22;5217;43.960;10.954;2022-12-17T12:54:22;18.10;99.90
10344;DHT22;5217;43.960;10.954;2022-12-17T12:57:27;18.10;99.90
10344;DHT22;5217;43.960;10.954;2022-12-17T13:00:28;18.20;99.90
10344;DHT22;5217;43.960;10.954;2022-12-17T13:03:34;18.20;99.90
10344;DHT22;5217;43.960;10.954;2022-12-17T13:06:43;18.20;99.90
10344;DHT22;5217;43.960;10.954;2022-12-17T13:09:29;18.20;99.90
10344;DHT22;5217;43.960;10.954;2022-12-17T13:12:27;18.30;99.90
10344;DHT22;5217;43.960;10.954;2022-12-17T13:15:19;18.20;99.90
10344;DHT22;5217;43.960;10.954;2022-12-17T13:18:02;18.30;99.90
10344;DHT22;5217;43.960;10.954;2022-12-17T13:20:34;18.20;99.90
10344;DHT22;5217;43.960;10.954;2022-12-17T13:23:29;18.30;99.90
10344;DHT22;5217;43.960;10.954;2022-12-17T13:26:15;18.20;99.90
10344;DHT22;5217;43.960;10.954;2022-12-17T13:28:56;18.20;99.90
10344;DHT22;5217;43.960;10.954;2022-12-17T13:31:26;18.20;99.90
10344;DHT22;5217;43.960;10.954;2022-12-17T13:34:04;18.30;99.90
10344;DHT22;5217;43.960;10.954;2022-12-17T13:36:41;18.20;99.90
10344;DHT22;5217;43.960;10.954;2022-12-17T13:43:00;18.20;99.90
10344;DHT22;5217;43.960;10.954;2022-12-17T13:45:32;18.30;99.90
10344;DHT22;5217;43.960;10.954;2022-12-17T13:48:02;18.30;99.90
10344;DHT22;5217;43.960;10.954;2022-12-17T13:50:31;18.20;99.90
10344;DHT22;5217;43.960;10.954;2022-12-17T13:53:08;18.20;99.90
10344;DHT22;5217;43.960;10.954;2022-12-17T13:55:37;18.20;99.90
10344;DHT22;5217;43.960;10.954;2022-12-17T13:58:21;18.20;99.90
10344;DHT22;5217;43.960;10.954;2022-12-17T14:01:02;18.20;99.90
10344;DHT22;5217;43.960;10.954;2022-12-17T14:03:35;18.20;99.90
10344;DHT22;5217;43.960;10.954;2022-12-17T14:08:54;18.20;99.90
10344;DHT22;5217;43.960;10.954;2022-12-17T14:11:24;18.20;99.90
10344;DHT22;5217;43.960;10.954;2022-12-17T14:14:19;18.20;99.90
10344;DHT22;5217;43.960;10.954;2022-12-17T14:16:50;18.30;99.90
10344;DHT22;5217;43.960;10.954;2022-12-17T14:19:18;18.30;99.90
10344;DHT22;5217;43.960;10.954;2022-12-17T14:24:53;18.30;99.90
10344;DHT22;5217;43.960;10.954;2022-12-17T14:27:24;18.30;99.90
10344;DHT22;5217;43.960;10.954;2022-12-17T14:29:54;18.30;99.90
10344;DHT22;5217;43.960;10.954;2022-12-17T14:32:24;18.30;99.90
10344;DHT22;5217;43.960;10.954;2022-12-17T14:34:53;18.20;99.90
10344;DHT22;5217;43.960;10.954;2022-12-17T14:37:27;18.20;99.90
10344;DHT22;5217;43.960;10.954;2022-12-17T14:40:00;18.20;99.90
10344;DHT22;5217;43.960;10.954;2022-12-17T14:42:34;18.20;99.90
10344;DHT22;5217;43.960;10.954;2022-12-17T14:45:16;18.20;99.90
10344;DHT22;5217;43.960;10.954;2022-12-17T14:47:52;18.20;99.90
10344;DHT22;5217;43.960;10.954;2022-12-17T14:50:30;18.20;99.90
10344;DHT22;5217;43.960;10.954;2022-12-17T14:53:00;18.20;99.90
10344;DHT22;5217;43.960;10.954;2022-12-17T14:55:34;18.20;99.90
10344;DHT22;5217;43.960;10.954;2022-12-17T14:58:18;18.20;99.90
10344;DHT22;5217;43.960;10.954;2022-12-17T15:00:51;18.20;99.90
10344;DHT22;5217;43.960;10.954;2022-12-17T15:03:24;18.20;99.90
10344;DHT22;5217;43.960;10.954;2022-12-17T15:05:56;18.20;99.90
10344;DHT22;5217;43.960;10.954;2022-12-17T15:08:28;18.20;99.90
10344;DHT22;5217;43.960;10.954;2022-12-17T15:10:57;18.10;99.90
10344;DHT22;5217;43.960;10.954;2022-12-17T15:13:26;18.10;99.90
10344;DHT22;5217;43.960;10.954;2022-12-17T15:15:56;18.10;99.90
10344;DHT22;5217;43.960;10.954;2022-12-17T15:18:25;18.10;99.90
10344;DHT22;5217;43.960;10.954;2022-12-17T15:20:53;18.00;99.90
10344;DHT22;5217;43.960;10.954;2022-12-17T15:23:22;18.00;99.90
10344;DHT22;5217;43.960;10.954;2022-12-17T15:25:53;17.90;99.90
10344;DHT22;5217;43.960;10.954;2022-12-17T15:28:22;17.90;99.90
10344;DHT22;5217;43.960;10.954;2022-12-17T15:30:50;17.80;99.90
10344;DHT22;5217;43.960;10.954;2022-12-17T15:33:20;17.80;99.90
10344;DHT22;5217;43.960;10.954;2022-12-17T15:35:49;17.80;99.90
10344;DHT22;5217;43.960;10.954;2022-12-17T15:38:17;17.70;99.90
10344;DHT22;5217;43.960;10.954;2022-12-17T15:40:45;17.70;99.90
10344;DHT22;5217;43.960;10.954;2022-12-17T15:43:14;17.70;99.90
10344;DHT22;5217;43.960;10.954;2022-12-17T15:45:43;17.70;99.90
10344;DHT22;5217;43.960;10.954;2022-12-17T15:48:13;17.60;99.90
10344;DHT22;5217;43.960;10.954;2022-12-17T15:50:43;17.60;99.90
10344;DHT22;5217;43.960;10.954;2022-12-17T15:53:12;17.60;99.90
10344;DHT22;5217;43.960;10.954;2022-12-17T15:55:42;17.50;99.90
10344;DHT22;5217;43.960;10.954;2022-12-17T15:58:11;17.50;99.90
10344;DHT22;5217;43.960;10.954;2022-12-17T16:00:40;17.50;99.90
10344;DHT22;5217;43.960;10.954;2022-12-17T16:03:09;17.40;99.90
10344;DHT22;5217;43.960;10.954;2022-12-17T16:05:38;17.40;99.90
10344;DHT22;5217;43.960;10.954;2022-12-17T16:08:09;17.30;99.90
10344;DHT22;5217;43.960;10.954;2022-12-17T16:10:38;17.30;99.90
10344;DHT22;5217;43.960;10.954;2022-12-17T16:13:06;17.30;99.90
10344;DHT22;5217;43.960;10.954;2022-12-17T16:15:34;17.20;99.90
10344;DHT22;5217;43.960;10.954;2022-12-17T16:18:03;17.20;99.90
10344;DHT22;5217;43.960;10.954;2022-12-17T16:20:31;17.20;99.90
10344;DHT22;5217;43.960;10.954;2022-12-17T16:23:00;17.10;99.90
10344;DHT22;5217;43.960;10.954;2022-12-17T16:25:29;17.10;99.90
10344;DHT22;5217;43.960;10.954;2022-12-17T16:27:58;17.10;99.90
10344;DHT22;5217;43.960;10.954;2022-12-17T16:30:26;17.10;99.90
10344;DHT22;5217;43.960;10.954;2022-12-17T16:32:56;17.00;99.90
10344;DHT22;5217;43.960;10.954;2022-12-17T16:35:25;17.00;99.90
10344;DHT22;5217;43.960;10.954;2022-12-17T16:37:54;17.00;99.90
10344;DHT22;5217;43.960;10.954;2022-12-17T16:40:22;17.00;99.90
10344;DHT22;5217;43.960;10.954;2022-12-17T16:42:52;16.90;99.90
10344;DHT22;5217;43.960;10.954;2022-12-17T16:45:21;16.90;99.90
10344;DHT22;5217;43.960;10.954;2022-12-17T16:47:49;16.90;99.90
10344;DHT22;5217;43.960;10.954;2022-12-17T16:50:17;16.90;99.90
10344;DHT22;5217;43.960;10.954;2022-12-17T16:52:46;16.90;99.90
10344;DHT22;5217;43.960;10.954;2022-12-17T16:55:14;16.90;99.90
10344;DHT22;5217;43.960;10.954;2022-12-17T16:57:43;16.90;99.90
10344;DHT22;5217;43.960;10.954;2022-12-17T17:00:13;16.80;99.90
10344;DHT22;5217;43.960;10.954;2022-12-17T17:02:42;16.80;99.90
10344;DHT22;5217;43.960;10.954;2022-12-17T17:05:17;16.80;99.90
10344;DHT22;5217;43.960;10.954;2022-12-17T17:07:45;16.80;99.90
10344;DHT22;5217;43.960;10.954;2022-12-17T17:10:14;16.70;99.90
10344;DHT22;5217;43.960;10.954;2022-12-17T17:12:42;16.70;99.90
10344;DHT22;5217;43.960;10.954;2022-12-17T17:15:12;16.70;99.90
10344;DHT22;5217;43.960;10.954;2022-12-17T17:17:40;16.70;99.90
10344;DHT22;5217;43.960;10.954;2022-12-17T17:20:22;16.70;99.90
10344;DHT22;5217;43.960;10.954;2022-12-17T17:22:50;16.70;99.90
10344;DHT22;5217;43.960;10.954;2022-12-17T17:25:19;16.60;99.90
10344;DHT22;5217;43.960;10.954;2022-12-17T17:27:48;16.60;99.90
10344;DHT22;5217;43.960;10.954;2022-12-17T17:30:17;16.60;99.90
10344;DHT22;5217;43.960;10.954;2022-12-17T17:32:46;16.60;99.90